Tim S. Dool — VGPY — position and weather

sailwx.info

Track history (hours):
 
Tides and Currents Weather Stations Pressure Air Temp Water Temp Dewpoint Dewpoint Depression Visibility Wind Speed Wind Dir Waves Ship Positions

Tim S. Dool

Last reported at 2014-Jul-24 00:33 UTC. Time now 2014-Jul-29 12:53 UTC.
Position N 46°34' W 072°07'.

Length 223 m; draft 8 m.

Type: Cargo ship. MMSI: 316001696.

Date/timePositionNaut miles runAvg speedWind from/ knotsBaromVisibWave heightAir tempDewpointWater temp
2014-Jul-24 00:33N 46°34' W 072°07'1212.2
2014-Jul-23 23:34N 46°26' W 072°20'1212.4
2014-Jul-23 22:33N 46°18' W 072°34'1212.1
2014-Jul-23 21:33N 46°13' W 072°49'1312.8
2014-Jul-23 20:33N 46°04' W 073°03'1111.6
2014-Jul-23 19:33N 45°55' W 073°13'1413.5
2014-Jul-23 18:34N 45°44' W 073°25'1212.2
2014-Jul-23 17:33N 45°33' W 073°32'3 3.1
2014-Jul-23 16:33N 45°29' W 073°31'4 3.6
2014-Jul-23 15:33N 45°26' W 073°30'3 3.1
2014-Jul-23 14:33N 45°24' W 073°34'3 2.8
2014-Jul-23 13:33N 45°24' W 073°38'5 5.4
2014-Jul-23 12:33N 45°24' W 073°46'6 6.3
2014-Jul-23 11:33N 45°21' W 073°53'2 2.2
2014-Jul-23 10:33N 45°19' W 073°55'1 1.0
2014-Jul-23 09:33N 45°18' W 073°56'5 5.3
2014-Jul-23 08:33N 45°14' W 074°00'1010.3
2014-Jul-23 07:33N 45°14' W 074°15'100 7.7
2014-Jul-22 18:32N 44°14' W 076°08'1111.5
2014-Jul-22 17:33N 44°08' W 076°21'136 9.7
2014-Jul-22 03:33N 43°11' W 079°12'59 4.4
2014-Jul-21 14:05N 42°25' W 080°02'159 5.1
2014-Jul-20 07:00N 44°30' W 082°18'69 9.8 040 / 51015.0 0.517.0
2014-Jul-20 00:00N 45°30' W 083°06'3020.5 120 / 81016.010.8 0.518.0
2014-Jul-19 22:33N 45°50' W 083°37'8 8.5
2014-Jul-19 21:34N 45°53' W 083°48'1 1.2
2014-Jul-19 20:34N 45°54' W 083°50'10 9.7
2014-Jul-19 19:33N 46°02' W 083°56'33 5.5
2014-Jul-19 13:28N 46°30' W 084°23'7 8.2
2014-Jul-19 12:33N 46°27' W 084°33'1211.9
2014-Jul-19 11:34N 46°36' W 084°44'3812.2
2014-Jul-19 08:26N 46°59' W 085°28'1112.7
2014-Jul-19 07:33N 47°05' W 085°42'4 7.3
2014-Jul-19 07:00N 47°06' W 085°48'1416.3 170 / 15 10.0
2014-Jul-19 06:08N 47°13' W 086°06'712.8
2014-Jul-19 05:34N 47°17' W 086°15'6611.9
2014-Jul-19 00:00N 47°48' W 087°42'   120 / 91013.010.8 0.512.0
2014-Jul-16 01:00N 47°00' W 082°12'92 6.8 340 / 151027.010.8 1.0 9.0
2014-Jul-15 11:33N 46°13' W 084°07'3511.3
2014-Jul-15 08:28N 45°43' W 083°40'9712.9
2014-Jul-15 01:00N 44°18' W 082°36'145 6.1 150 / 91003.010.8 0.523.0
2014-Jul-14 01:26N 42°19' W 080°43'511.9
2014-Jul-14 01:00N 42°18' W 080°36'   210 / 101008.010.8 1.024.0
Track history (hours):
 
Tides and Currents Weather Stations Pressure Air Temp Water Temp Dewpoint Dewpoint Depression Visibility Wind Speed Wind Dir Waves Ship Positions

Tim S. Dool

Last reported at 2014-Jul-24 00:33 UTC. Time now 2014-Jul-29 12:53 UTC.
Position N 46°34' W 072°07'.

Length 223 m; draft 8 m.

Type: Cargo ship. MMSI: 316001696.

Date/timePositionNaut miles runAvg speedWind from/ knotsBaromVisibWave heightAir tempDewpointWater temp
2014-Jul-24 00:33N 46°34' W 072°07'1212.2
2014-Jul-23 23:34N 46°26' W 072°20'1212.4
2014-Jul-23 22:33N 46°18' W 072°34'1212.1
2014-Jul-23 21:33N 46°13' W 072°49'1312.8
2014-Jul-23 20:33N 46°04' W 073°03'1111.6
2014-Jul-23 19:33N 45°55' W 073°13'1413.5
2014-Jul-23 18:34N 45°44' W 073°25'1212.2
2014-Jul-23 17:33N 45°33' W 073°32'3 3.1
2014-Jul-23 16:33N 45°29' W 073°31'4 3.6
2014-Jul-23 15:33N 45°26' W 073°30'3 3.1
2014-Jul-23 14:33N 45°24' W 073°34'3 2.8
2014-Jul-23 13:33N 45°24' W 073°38'5 5.4
2014-Jul-23 12:33N 45°24' W 073°46'6 6.3
2014-Jul-23 11:33N 45°21' W 073°53'2 2.2
2014-Jul-23 10:33N 45°19' W 073°55'1 1.0
2014-Jul-23 09:33N 45°18' W 073°56'5 5.3
2014-Jul-23 08:33N 45°14' W 074°00'1010.3
2014-Jul-23 07:33N 45°14' W 074°15'100 7.7
2014-Jul-22 18:32N 44°14' W 076°08'1111.5
2014-Jul-22 17:33N 44°08' W 076°21'136 9.7
2014-Jul-22 03:33N 43°11' W 079°12'59 4.4
2014-Jul-21 14:05N 42°25' W 080°02'159 5.1
2014-Jul-20 07:00N 44°30' W 082°18'69 9.8 040 / 51015.0 0.517.0
2014-Jul-20 00:00N 45°30' W 083°06'3020.5 120 / 81016.010.8 0.518.0
2014-Jul-19 22:33N 45°50' W 083°37'8 8.5
2014-Jul-19 21:34N 45°53' W 083°48'1 1.2
2014-Jul-19 20:34N 45°54' W 083°50'10 9.7
2014-Jul-19 19:33N 46°02' W 083°56'33 5.5
2014-Jul-19 13:28N 46°30' W 084°23'7 8.2
2014-Jul-19 12:33N 46°27' W 084°33'1211.9
2014-Jul-19 11:34N 46°36' W 084°44'3812.2
2014-Jul-19 08:26N 46°59' W 085°28'1112.7
2014-Jul-19 07:33N 47°05' W 085°42'4 7.3
2014-Jul-19 07:00N 47°06' W 085°48'1416.3 170 / 15 10.0
2014-Jul-19 06:08N 47°13' W 086°06'712.8
2014-Jul-19 05:34N 47°17' W 086°15'6611.9
2014-Jul-19 00:00N 47°48' W 087°42'   120 / 91013.010.8 0.512.0
2014-Jul-16 01:00N 47°00' W 082°12'92 6.8 340 / 151027.010.8 1.0 9.0
2014-Jul-15 11:33N 46°13' W 084°07'3511.3
2014-Jul-15 08:28N 45°43' W 083°40'9712.9
2014-Jul-15 01:00N 44°18' W 082°36'145 6.1 150 / 91003.010.8 0.523.0
2014-Jul-14 01:26N 42°19' W 080°43'511.9
2014-Jul-14 01:00N 42°18' W 080°36'   210 / 101008.010.8 1.024.0

Dump ship's entire track history